createdAt,value
2023-03-16T00:01:06.613Z,23.10
2023-03-16T00:03:36.818Z,28.40
2023-03-16T00:06:05.837Z,23.20
2023-03-16T00:08:35.964Z,27.30
2023-03-16T00:11:05.034Z,22.50
2023-03-16T00:13:33.954Z,25.40
2023-03-16T00:16:08.107Z,18.10
2023-03-16T00:18:39.542Z,21.70
2023-03-16T00:21:08.271Z,22.90
2023-03-16T00:23:37.472Z,20.90
2023-03-16T00:26:10.698Z,16.20
2023-03-16T00:28:39.366Z,17.40
2023-03-16T00:31:12.207Z,17.20
2023-03-16T00:33:43.233Z,14.60
2023-03-16T00:36:12.946Z,19.20
2023-03-16T00:38:45.662Z,20.70
2023-03-16T00:41:15.988Z,13.20
2023-03-16T00:43:45.692Z,18.90
2023-03-16T00:46:17.435Z,16.60
2023-03-16T00:48:47.574Z,20.20
2023-03-16T00:51:18.716Z,18.90
2023-03-16T00:53:47.599Z,17.80
2023-03-16T00:56:17.424Z,17.10
2023-03-16T00:58:46.053Z,18.80
2023-03-16T01:01:19.665Z,19.70
2023-03-16T01:03:49.992Z,16.10
2023-03-16T01:06:20.990Z,19.30
2023-03-16T01:08:49.866Z,14.20
2023-03-16T01:11:23.248Z,12.70
2023-03-16T01:13:54.798Z,15.10
2023-03-16T01:16:26.636Z,15.90
2023-03-16T01:18:57.325Z,17.00
2023-03-16T01:21:25.765Z,17.90
2023-03-16T01:23:55.289Z,18.00
2023-03-16T01:26:25.600Z,15.70
2023-03-16T01:28:55.831Z,19.30
2023-03-16T01:31:24.980Z,17.70
2023-03-16T01:33:53.909Z,17.60
2023-03-16T01:36:25.507Z,14.40
2023-03-16T01:39:01.409Z,16.40
2023-03-16T01:41:36.151Z,13.30
2023-03-16T01:44:06.152Z,18.40
2023-03-16T01:46:34.991Z,12.20
2023-03-16T01:49:09.770Z,15.40
2023-03-16T01:51:46.166Z,14.10
2023-03-16T01:54:39.009Z,13.70
2023-03-16T01:57:17.132Z,11.30
2023-03-16T01:59:56.655Z,11.50
2023-03-16T02:02:28.228Z,15.00
2023-03-16T02:05:32.008Z,13.80
2023-03-16T02:09:10.018Z,14.20
2023-03-16T02:11:57.746Z,16.10
2023-03-16T02:14:27.941Z,13.80
2023-03-16T02:16:57.285Z,19.30
2023-03-16T02:19:53.501Z,13.90
2023-03-16T02:22:25.550Z,13.70
2023-03-16T02:24:55.285Z,10.90
2023-03-16T02:27:52.422Z,13.10
2023-03-16T02:30:23.467Z,17.30
2023-03-16T02:33:05.471Z,12.10
2023-03-16T02:35:34.779Z,18.70
2023-03-16T02:38:04.587Z,11.60
2023-03-16T02:40:37.572Z,11.20
2023-03-16T02:43:19.670Z,12.60
2023-03-16T02:45:58.104Z,11.70
2023-03-16T02:48:34.136Z,14.90
2023-03-16T02:51:03.026Z,13.00
2023-03-16T02:53:31.941Z,13.40
2023-03-16T02:56:03.580Z,9.60
2023-03-16T02:58:34.021Z,16.10
2023-03-16T03:01:04.220Z,11.70
2023-03-16T03:03:35.066Z,15.80
2023-03-16T03:06:03.771Z,11.00
2023-03-16T03:08:37.530Z,12.20
2023-03-16T03:11:06.563Z,12.70
2023-03-16T03:13:38.617Z,12.60
2023-03-16T03:16:08.206Z,13.40
2023-03-16T03:18:36.889Z,13.20
2023-03-16T03:21:06.449Z,11.90
2023-03-16T03:23:35.899Z,12.10
2023-03-16T03:26:05.627Z,11.20
2023-03-16T03:28:34.706Z,11.90
2023-03-16T03:31:03.394Z,14.30
2023-03-16T03:33:34.009Z,12.30
2023-03-16T03:36:04.698Z,11.10
2023-03-16T03:38:36.500Z,13.20
2023-03-16T03:41:09.698Z,10.90
2023-03-16T03:43:40.118Z,12.70
2023-03-16T03:46:11.512Z,14.90
2023-03-16T03:48:40.270Z,12.60
2023-03-16T03:51:09.050Z,12.40
2023-03-16T03:53:46.224Z,12.90
2023-03-16T03:56:37.452Z,10.40
2023-03-16T03:59:06.956Z,10.70
2023-03-16T04:01:57.823Z,12.60
2023-03-16T04:04:28.698Z,11.60
2023-03-16T04:06:58.187Z,11.90
2023-03-16T04:09:26.758Z,13.10
2023-03-16T04:11:58.409Z,11.50
2023-03-16T04:14:28.148Z,12.80
2023-03-16T04:16:57.303Z,12.80
2023-03-16T04:19:26.129Z,11.10
2023-03-16T04:21:55.850Z,11.80
2023-03-16T04:24:24.728Z,10.70
2023-03-16T04:26:54.769Z,13.00
2023-03-16T04:29:25.636Z,12.90
2023-03-16T04:31:55.593Z,11.80
2023-03-16T04:34:25.397Z,14.00
2023-03-16T04:36:56.453Z,17.70
2023-03-16T04:39:25.250Z,14.30
2023-03-16T04:41:55.875Z,18.50
2023-03-16T04:44:26.310Z,14.30
2023-03-16T04:46:55.419Z,11.30
2023-03-16T04:49:25.310Z,11.10
2023-03-16T04:51:55.012Z,12.10
2023-03-16T04:54:23.910Z,13.00
2023-03-16T04:56:53.008Z,13.60
2023-03-16T04:59:42.160Z,13.20
2023-03-16T05:02:21.118Z,12.30
2023-03-16T05:04:50.196Z,12.40
2023-03-16T05:07:19.691Z,12.70
2023-03-16T05:09:51.351Z,12.80
2023-03-16T05:12:20.126Z,13.60
2023-03-16T05:14:49.737Z,12.00
2023-03-16T05:17:51.859Z,11.40
2023-03-16T05:20:22.898Z,12.80
2023-03-16T05:22:53.986Z,9.00
2023-03-16T05:25:31.694Z,12.10
2023-03-16T05:28:04.027Z,13.90
2023-03-16T05:30:42.522Z,12.60
2023-03-16T05:33:14.023Z,10.90
2023-03-16T05:35:43.683Z,10.70
2023-03-16T05:38:13.872Z,11.00
2023-03-16T05:40:42.754Z,14.50
2023-03-16T05:43:24.944Z,11.40
2023-03-16T05:45:55.479Z,13.00
2023-03-16T05:48:27.945Z,12.60
2023-03-16T05:50:58.794Z,15.30
2023-03-16T05:53:31.175Z,12.60
2023-03-16T05:56:07.516Z,14.30
2023-03-16T05:58:39.146Z,15.40
2023-03-16T06:01:10.014Z,10.10
2023-03-16T06:03:39.166Z,10.90
2023-03-16T06:06:10.355Z,10.60
2023-03-16T06:08:50.621Z,10.30
2023-03-16T06:11:19.695Z,10.70
2023-03-16T06:13:48.384Z,8.40
2023-03-16T06:16:17.470Z,12.00
2023-03-16T06:18:46.893Z,7.40
2023-03-16T06:21:15.768Z,9.70
2023-03-16T06:23:44.762Z,12.90
2023-03-16T06:26:13.774Z,11.20
2023-03-16T06:28:43.993Z,9.10
2023-03-16T06:31:12.901Z,9.40
2023-03-16T06:33:43.716Z,10.20
2023-03-16T06:36:12.681Z,11.80
2023-03-16T06:38:45.284Z,10.20
2023-03-16T06:41:27.582Z,10.90
2023-03-16T06:43:56.793Z,10.90
2023-03-16T06:46:25.408Z,9.40
2023-03-16T06:48:54.067Z,13.20
2023-03-16T06:51:22.855Z,8.80
2023-03-16T06:53:51.842Z,9.60
2023-03-16T06:56:20.733Z,8.90
2023-03-16T06:58:50.436Z,10.80
2023-03-16T07:01:19.059Z,7.40
2023-03-16T07:03:48.026Z,8.90
2023-03-16T07:06:26.013Z,9.60
2023-03-16T07:08:55.953Z,8.30
2023-03-16T07:11:25.010Z,10.20
2023-03-16T07:13:53.697Z,7.80
2023-03-16T07:16:23.871Z,7.60
2023-03-16T07:18:52.812Z,13.30
2023-03-16T07:21:22.207Z,10.60
2023-03-16T07:23:52.015Z,10.10
2023-03-16T07:26:28.390Z,9.30
2023-03-16T07:29:00.149Z,9.60
2023-03-16T07:31:29.080Z,10.10
2023-03-16T07:34:00.497Z,8.40
2023-03-16T07:36:36.152Z,11.20
2023-03-16T07:39:06.677Z,8.30
2023-03-16T07:41:36.470Z,7.70
2023-03-16T07:44:29.483Z,9.60
2023-03-16T07:47:02.013Z,7.10
2023-03-16T07:49:31.708Z,11.50
2023-03-16T07:52:02.041Z,12.10
2023-03-16T07:54:38.507Z,7.40
2023-03-16T07:57:08.443Z,8.60
2023-03-16T07:59:41.856Z,7.50
2023-03-16T08:02:17.947Z,10.10
2023-03-16T08:04:46.790Z,13.30
2023-03-16T08:07:16.880Z,7.50
2023-03-16T08:09:55.825Z,12.00
2023-03-16T08:12:31.120Z,10.60
2023-03-16T08:15:01.147Z,8.00
2023-03-16T08:17:33.959Z,7.40
2023-03-16T08:20:10.413Z,11.10
2023-03-16T08:22:39.312Z,8.20
2023-03-16T08:25:12.157Z,9.50
2023-03-16T08:27:44.184Z,10.30
2023-03-16T08:30:14.339Z,9.40
2023-03-16T08:32:44.973Z,8.20
2023-03-16T08:35:16.022Z,9.50
2023-03-16T08:37:47.108Z,9.00
2023-03-16T08:40:17.520Z,7.40
2023-03-16T08:42:50.489Z,12.60
2023-03-16T08:45:20.419Z,7.80
2023-03-16T08:47:50.844Z,9.20
2023-03-16T08:50:20.482Z,7.60
2023-03-16T08:52:51.402Z,8.70
2023-03-16T08:55:20.330Z,9.80
2023-03-16T08:57:50.084Z,8.90
2023-03-16T09:00:20.817Z,10.50
2023-03-16T09:02:50.064Z,6.70
2023-03-16T09:05:19.154Z,9.80
2023-03-16T09:07:49.112Z,7.20
2023-03-16T09:10:19.303Z,6.50
2023-03-16T09:12:48.579Z,6.30
2023-03-16T09:15:17.544Z,7.40
2023-03-16T09:17:47.591Z,8.70
2023-03-16T09:20:26.382Z,9.20
2023-03-16T09:22:56.613Z,6.10
2023-03-16T09:25:26.698Z,8.30
2023-03-16T09:27:56.236Z,8.50
2023-03-16T09:30:27.843Z,7.20
2023-03-16T09:32:57.193Z,6.30
2023-03-16T09:35:28.302Z,9.80
2023-03-16T09:38:06.740Z,7.20
2023-03-16T09:40:37.377Z,7.60
2023-03-16T09:43:27.166Z,10.60
2023-03-16T09:46:02.153Z,8.20
2023-03-16T09:48:35.014Z,6.40
2023-03-16T09:51:07.598Z,6.60
2023-03-16T09:53:39.697Z,5.50
2023-03-16T09:56:17.416Z,6.30
2023-03-16T09:58:46.091Z,8.40
2023-03-16T10:01:41.212Z,7.50
2023-03-16T10:04:19.994Z,6.60
2023-03-16T10:06:55.633Z,6.30
2023-03-16T10:09:53.653Z,8.00
2023-03-16T10:12:23.964Z,6.50
2023-03-16T10:14:58.069Z,7.10
2023-03-16T10:17:51.102Z,8.10
2023-03-16T10:20:24.620Z,6.70
2023-03-16T10:22:55.149Z,6.60
2023-03-16T10:25:53.852Z,8.20
2023-03-16T10:28:26.567Z,7.90
2023-03-16T10:30:57.075Z,7.80
2023-03-16T10:33:28.949Z,7.90
2023-03-16T10:36:24.771Z,6.80
2023-03-16T10:38:59.257Z,7.80
2023-03-16T10:41:35.826Z,8.50
2023-03-16T10:44:16.668Z,6.90
2023-03-16T10:46:50.815Z,6.80
2023-03-16T10:49:49.815Z,9.30
2023-03-16T10:52:27.826Z,8.00
2023-03-16T10:55:02.291Z,5.20
2023-03-16T10:57:37.788Z,6.60
2023-03-16T11:00:16.309Z,10.80
2023-03-16T11:02:45.197Z,7.80
2023-03-16T11:05:19.907Z,10.20
2023-03-16T11:07:50.690Z,8.70
2023-03-16T11:10:55.676Z,5.10
2023-03-16T11:13:34.221Z,9.30
2023-03-16T11:16:40.489Z,6.40
2023-03-16T11:19:35.151Z,6.60
2023-03-16T11:22:25.675Z,4.30
2023-03-16T11:24:57.700Z,6.90
2023-03-16T11:27:38.188Z,7.60
2023-03-16T11:30:35.154Z,8.90
2023-03-16T11:33:11.819Z,8.70
2023-03-16T11:36:01.814Z,8.20
2023-03-16T11:38:31.811Z,10.30
2023-03-16T11:41:06.268Z,8.10
2023-03-16T11:43:50.425Z,7.40
2023-03-16T11:46:37.978Z,5.70
2023-03-16T11:49:32.930Z,9.10
2023-03-16T11:52:23.908Z,6.80
2023-03-16T11:55:00.870Z,7.50
2023-03-16T11:58:01.904Z,6.00
2023-03-16T12:00:56.634Z,7.90
2023-03-16T12:03:59.732Z,6.80
2023-03-16T12:06:51.237Z,7.80
2023-03-16T12:09:54.457Z,6.40
2023-03-16T12:12:30.078Z,5.60
2023-03-16T12:15:18.215Z,8.50
2023-03-16T12:17:47.509Z,6.70
2023-03-16T12:20:16.738Z,6.00
2023-03-16T12:23:00.106Z,6.00
2023-03-16T12:25:40.613Z,8.50
2023-03-16T12:28:26.205Z,6.10
2023-03-16T12:31:00.815Z,5.70
2023-03-16T12:33:36.562Z,7.30
2023-03-16T12:36:24.299Z,9.80
2023-03-16T12:39:08.111Z,10.10
2023-03-16T12:42:18.432Z,10.60
2023-03-16T12:44:55.802Z,7.60
2023-03-16T12:47:36.973Z,7.40
2023-03-16T12:50:13.763Z,7.70
2023-03-16T12:52:53.078Z,8.20
2023-03-16T12:55:30.398Z,8.60
2023-03-16T12:58:02.747Z,8.10
2023-03-16T13:00:43.071Z,7.00
2023-03-16T13:03:16.188Z,7.70
2023-03-16T13:05:50.721Z,9.20
2023-03-16T13:08:21.843Z,10.20
2023-03-16T13:11:11.886Z,8.20
2023-03-16T13:14:15.232Z,9.60
2023-03-16T13:16:45.753Z,8.40
2023-03-16T13:19:29.510Z,6.80
2023-03-16T13:22:29.788Z,9.80
2023-03-16T13:25:19.050Z,6.90
2023-03-16T13:27:56.000Z,6.50
2023-03-16T13:30:33.010Z,6.70
2023-03-16T13:33:23.858Z,9.20
2023-03-16T13:35:55.206Z,7.30
2023-03-16T13:38:29.737Z,7.20
2023-03-16T13:41:11.160Z,7.30
2023-03-16T13:43:44.552Z,7.80
2023-03-16T13:46:22.852Z,6.40
2023-03-16T13:48:51.606Z,7.20
2023-03-16T13:51:23.272Z,6.70
2023-03-16T13:53:52.351Z,7.90
2023-03-16T13:56:27.224Z,8.50
2023-03-16T13:58:58.156Z,7.60
2023-03-16T14:01:31.304Z,6.60
2023-03-16T14:04:09.121Z,7.50
2023-03-16T14:06:39.025Z,6.30
2023-03-16T14:09:16.867Z,7.10
2023-03-16T14:11:49.100Z,6.60
2023-03-16T14:14:29.366Z,7.90
2023-03-16T14:17:04.182Z,7.90
2023-03-16T14:19:50.377Z,5.10
2023-03-16T14:22:24.452Z,9.10
2023-03-16T14:24:57.134Z,6.40
2023-03-16T14:27:29.337Z,8.10
2023-03-16T14:30:03.907Z,7.00
2023-03-16T14:32:33.819Z,6.80
2023-03-16T14:35:17.237Z,5.30
2023-03-16T14:41:35.485Z,5.30
2023-03-16T14:44:05.293Z,7.00
2023-03-16T14:46:43.498Z,6.50
2023-03-16T14:49:28.276Z,8.10
2023-03-16T14:52:02.789Z,6.40
2023-03-16T14:54:31.689Z,8.70
2023-03-16T14:57:06.336Z,7.00
2023-03-16T14:59:35.213Z,7.50
2023-03-16T15:02:07.407Z,7.60
2023-03-16T15:04:37.889Z,6.90
2023-03-16T15:07:27.202Z,6.40
2023-03-16T15:10:06.855Z,5.20
2023-03-16T15:12:36.188Z,6.80
2023-03-16T15:15:19.767Z,4.40
2023-03-16T15:17:50.579Z,6.80
2023-03-16T15:20:24.350Z,7.00
2023-03-16T15:22:53.701Z,5.60
2023-03-16T15:25:26.034Z,5.90
2023-03-16T15:27:55.466Z,9.30
2023-03-16T15:30:26.954Z,7.90
2023-03-16T15:32:57.133Z,8.60
2023-03-16T15:35:26.345Z,8.10
2023-03-16T15:37:55.109Z,6.10
2023-03-16T15:40:27.168Z,5.80
2023-03-16T15:42:56.047Z,7.40
2023-03-16T15:45:24.956Z,7.60
2023-03-16T15:47:54.385Z,7.10
2023-03-16T15:50:25.080Z,7.20
2023-03-16T15:53:03.883Z,8.20
2023-03-16T15:55:45.461Z,7.60
2023-03-16T15:58:20.638Z,7.80
2023-03-16T16:00:50.097Z,7.10
2023-03-16T16:03:19.008Z,6.50
2023-03-16T16:05:48.725Z,7.50
2023-03-16T16:08:17.720Z,9.00
2023-03-16T16:10:47.547Z,8.60
2023-03-16T16:13:43.674Z,9.50
2023-03-16T16:16:15.942Z,8.00
2023-03-16T16:18:45.692Z,6.10
2023-03-16T16:21:26.139Z,8.60
2023-03-16T16:23:56.730Z,7.70
2023-03-16T16:26:53.217Z,7.60
2023-03-16T16:29:32.242Z,7.60
2023-03-16T16:32:01.535Z,9.80
2023-03-16T16:34:30.565Z,9.10
2023-03-16T16:36:59.590Z,9.50
2023-03-16T16:39:30.391Z,7.10
2023-03-16T16:42:03.879Z,10.60
2023-03-16T16:44:35.349Z,8.30
2023-03-16T16:47:13.568Z,9.70
2023-03-16T16:49:43.584Z,6.80
2023-03-16T16:52:18.215Z,6.10
2023-03-16T16:54:49.049Z,8.50
2023-03-16T16:57:19.248Z,7.60
2023-03-16T16:59:50.107Z,9.30
2023-03-16T17:02:32.687Z,8.60
2023-03-16T17:05:03.886Z,7.80
2023-03-16T17:07:33.240Z,6.10
2023-03-16T17:10:02.805Z,9.50
2023-03-16T17:12:34.378Z,10.60
2023-03-16T17:15:04.026Z,10.20
2023-03-16T17:17:33.445Z,9.60
2023-03-16T17:20:06.295Z,8.00
2023-03-16T17:22:37.747Z,7.40
2023-03-16T17:25:09.436Z,8.40
2023-03-16T17:27:39.751Z,6.10
2023-03-16T17:30:28.062Z,8.10
2023-03-16T17:33:04.821Z,7.50
2023-03-16T17:35:34.317Z,6.30
2023-03-16T17:38:07.039Z,7.00
2023-03-16T17:40:39.041Z,7.00
2023-03-16T17:43:17.039Z,7.70
2023-03-16T17:45:49.051Z,9.80
2023-03-16T17:48:33.173Z,12.40
2023-03-16T17:51:04.414Z,17.00
2023-03-16T17:53:37.413Z,16.00
2023-03-16T17:56:25.313Z,15.00
2023-03-16T17:58:57.763Z,18.80
2023-03-16T18:01:31.253Z,17.60
2023-03-16T18:04:03.196Z,21.30
2023-03-16T18:06:37.309Z,21.70
2023-03-16T18:09:10.735Z,21.30
2023-03-16T18:11:42.826Z,23.00
2023-03-16T18:14:23.674Z,28.40
2023-03-16T18:16:58.285Z,25.50
2023-03-16T18:19:34.421Z,25.00
2023-03-16T18:22:04.916Z,34.80
2023-03-16T18:24:35.680Z,40.30
2023-03-16T18:27:13.277Z,49.80
2023-03-16T18:29:48.067Z,58.50
2023-03-16T18:32:27.224Z,56.50
2023-03-16T18:34:58.979Z,56.70
2023-03-16T18:37:32.771Z,46.60
2023-03-16T18:40:03.322Z,52.50
2023-03-16T18:42:36.796Z,45.20
2023-03-16T18:45:12.664Z,44.90
2023-03-16T18:47:56.569Z,44.50
2023-03-16T18:50:31.553Z,42.20
2023-03-16T18:53:03.868Z,40.80
2023-03-16T18:55:36.315Z,33.20
2023-03-16T18:58:23.380Z,33.80
2023-03-16T19:00:57.593Z,31.40
2023-03-16T19:03:40.618Z,35.10
2023-03-16T19:06:20.971Z,30.30
2023-03-16T19:09:24.853Z,28.40
2023-03-16T19:12:03.669Z,23.60
2023-03-16T19:14:37.754Z,21.50
2023-03-16T19:17:12.179Z,24.30
2023-03-16T19:19:44.064Z,19.90
2023-03-16T19:22:22.411Z,20.20
2023-03-16T19:24:59.070Z,20.40
2023-03-16T19:27:37.970Z,19.00
2023-03-16T19:30:22.327Z,23.80
2023-03-16T19:32:54.343Z,27.60
2023-03-16T19:35:40.073Z,28.20
2023-03-16T19:38:19.229Z,27.80
2023-03-16T19:40:57.148Z,32.30
2023-03-16T19:43:29.818Z,31.10
2023-03-16T19:46:00.379Z,33.40
2023-03-16T19:48:35.300Z,34.10
2023-03-16T19:51:08.005Z,34.90
2023-03-16T19:53:38.399Z,32.20
2023-03-16T19:56:21.460Z,32.80
2023-03-16T19:58:54.561Z,35.20
2023-03-16T20:01:32.903Z,32.40
2023-03-16T20:04:06.087Z,36.30
2023-03-16T20:06:42.203Z,37.80
2023-03-16T20:09:14.092Z,36.20
2023-03-16T20:11:45.650Z,38.20
2023-03-16T20:14:32.286Z,34.90
2023-03-16T20:17:04.256Z,38.40
2023-03-16T20:19:36.394Z,32.50
2023-03-16T20:22:13.725Z,36.70
2023-03-16T20:24:51.795Z,30.90
2023-03-16T20:27:25.075Z,35.20
2023-03-16T20:29:56.328Z,33.30
2023-03-16T20:32:32.364Z,30.20
2023-03-16T20:35:06.796Z,31.60
2023-03-16T20:37:36.913Z,32.10
2023-03-16T20:40:08.570Z,34.60
2023-03-16T20:42:40.917Z,35.60
2023-03-16T20:45:17.959Z,30.80
2023-03-16T20:47:48.963Z,28.60
2023-03-16T20:50:24.293Z,27.40
2023-03-16T20:52:55.737Z,22.80
2023-03-16T20:55:30.796Z,26.40
2023-03-16T20:58:09.317Z,33.00
2023-03-16T21:00:40.982Z,25.70
2023-03-16T21:03:23.028Z,26.30
2023-03-16T21:05:54.243Z,26.20
2023-03-16T21:08:24.067Z,29.40
2023-03-16T21:10:57.518Z,28.60
2023-03-16T21:13:31.835Z,23.20
2023-03-16T21:16:03.608Z,22.60
2023-03-16T21:18:34.676Z,21.30
2023-03-16T21:21:05.485Z,25.60
2023-03-16T21:23:34.876Z,19.50
2023-03-16T21:26:04.265Z,26.50
2023-03-16T21:28:35.610Z,19.50
2023-03-16T21:31:06.462Z,24.90
2023-03-16T21:33:40.748Z,26.80
2023-03-16T21:36:21.442Z,23.60
2023-03-16T21:38:54.614Z,24.50
2023-03-16T21:41:23.821Z,25.00
2023-03-16T21:43:52.711Z,20.80
2023-03-16T21:46:23.575Z,23.00
2023-03-16T21:48:57.913Z,20.80
2023-03-16T21:51:35.362Z,21.90
2023-03-16T21:54:04.362Z,18.70
2023-03-16T21:56:33.236Z,20.10
2023-03-16T21:59:04.329Z,17.80
2023-03-16T22:01:34.200Z,18.50
2023-03-16T22:04:12.043Z,20.40
2023-03-16T22:06:42.726Z,18.90
2023-03-16T22:09:19.967Z,19.50
2023-03-16T22:11:48.724Z,19.70
2023-03-16T22:14:17.283Z,17.90
2023-03-16T22:16:46.277Z,16.70
2023-03-16T22:19:16.280Z,19.90
2023-03-16T22:21:45.290Z,21.60
2023-03-16T22:24:23.835Z,15.30
2023-03-16T22:26:53.101Z,20.70
2023-03-16T22:29:25.602Z,22.90
2023-03-16T22:32:03.317Z,23.00
2023-03-16T22:34:40.550Z,22.70
2023-03-16T22:37:10.848Z,19.10
2023-03-16T22:39:40.906Z,20.40
2023-03-16T22:42:29.541Z,19.00
2023-03-16T22:44:58.438Z,20.00
2023-03-16T22:47:32.646Z,22.10
2023-03-16T22:50:01.564Z,21.70
2023-03-16T22:52:32.778Z,22.80
2023-03-16T22:55:02.099Z,24.10
2023-03-16T22:57:31.288Z,26.00
2023-03-16T23:00:01.225Z,23.40
2023-03-16T23:02:30.116Z,22.50
2023-03-16T23:05:00.236Z,24.80
2023-03-16T23:07:29.005Z,26.70
2023-03-16T23:09:57.685Z,22.20
2023-03-16T23:12:26.471Z,24.60
2023-03-16T23:14:55.366Z,24.40
2023-03-16T23:17:24.167Z,22.90
2023-03-16T23:19:54.495Z,25.30
2023-03-16T23:22:23.166Z,25.00
2023-03-16T23:24:52.066Z,23.10
2023-03-16T23:27:23.110Z,22.70
2023-03-16T23:29:51.567Z,24.70
2023-03-16T23:32:20.269Z,21.20
2023-03-16T23:34:48.848Z,26.60
2023-03-16T23:37:18.246Z,19.90
2023-03-16T23:39:47.647Z,23.00
2023-03-16T23:42:17.279Z,21.00
2023-03-16T23:44:46.442Z,22.20
2023-03-16T23:47:15.646Z,26.70
2023-03-16T23:49:44.246Z,23.30
2023-03-16T23:52:14.033Z,25.50
2023-03-16T23:54:42.539Z,23.50
2023-03-16T23:57:12.454Z,27.80
2023-03-16T23:59:41.527Z,22.20
